Time;durP1;ratioP1;P1;durP2;ratioP2;P2;SDS_P1;SDS_P2;PMS_P1;PMS_P2;Temp;Humidity;BMP_temperature;BMP_pressure;BME280_temperature;BME280_humidity;BME280_pressure;Samples;Min_cycle;Max_cycle;Signal;HPM_P1;HPM_P2
2022/05/29 00:02:19;;;;;;;2.65;1.20;;;12.80;49.90;;;8.86;63.26;95135.00;5071809;28;20108;-50
2022/05/29 00:04:47;;;;;;;4.03;0.90;;;12.80;50.20;;;8.87;63.31;95135.81;5053833;28;20035;-54
2022/05/29 00:07:18;;;;;;;5.43;1.20;;;12.80;50.10;;;8.83;63.47;95130.22;5054187;28;20044;-52
2022/05/29 00:09:49;;;;;;;3.72;1.20;;;12.80;50.30;;;8.86;63.32;95131.56;5053948;28;20029;-49
2022/05/29 00:12:16;;;;;;;2.85;1.08;;;12.80;50.40;;;8.89;63.37;95129.16;5037231;28;20036;-49
2022/05/29 00:14:47;;;;;;;3.60;1.08;;;12.70;50.50;;;8.92;63.09;95133.16;5054160;28;20093;-52
2022/05/29 00:17:23;;;;;;;2.10;0.93;;;12.80;50.60;;;8.97;62.90;95135.84;5057850;28;20064;-49
2022/05/29 00:19:48;;;;;;;3.55;0.90;;;12.80;50.70;;;8.96;62.79;95119.09;5075549;28;20033;-53
2022/05/29 00:22:21;;;;;;;4.03;1.17;;;12.80;50.60;;;9.03;62.50;95129.47;5057432;28;20024;-52
2022/05/29 00:24:51;;;;;;;5.15;1.33;;;12.80;50.60;;;9.08;62.21;95126.78;5075269;28;20024;-50
2022/05/29 00:27:20;;;;;;;4.20;1.48;;;12.90;50.60;;;9.15;62.09;95119.38;5058074;28;20391;-49
2022/05/29 00:29:54;;;;;;;1.45;0.80;;;12.90;50.60;;;9.20;61.90;95114.03;5075358;28;20099;-52
2022/05/29 00:32:20;;;;;;;1.77;1.08;;;13.00;50.60;;;9.24;61.45;95114.28;5057275;28;20032;-48
2022/05/29 00:34:49;;;;;;;4.25;1.00;;;13.00;50.50;;;9.28;61.07;95110.06;5050077;28;20502;-52
2022/05/29 00:37:15;;;;;;;5.63;1.10;;;13.00;50.40;;;9.31;61.18;95106.03;5067410;28;20383;-53
2022/05/29 00:39:49;;;;;;;3.70;1.00;;;13.10;50.30;;;9.37;60.70;95110.28;5044161;28;20029;-49
2022/05/29 00:42:25;;;;;;;2.33;1.20;;;13.10;50.90;;;9.41;60.39;95109.50;5040647;28;20036;-54
2022/05/29 00:44:51;;;;;;;2.45;0.90;;;13.20;50.20;;;9.46;60.27;95103.38;5075214;28;20060;-51
2022/05/29 00:47:21;;;;;;;3.55;0.95;;;13.20;50.00;;;9.42;60.40;95094.34;5075006;28;20028;-50
2022/05/29 00:49:50;;;;;;;3.35;1.05;;;13.20;50.00;;;9.40;60.16;95086.66;5024045;28;20025;-49
2022/05/29 00:52:30;;;;;;;2.17;0.80;;;13.20;50.00;;;9.41;60.28;95088.22;5056497;28;20387;-53
2022/05/29 00:55:02;;;;;;;1.52;0.80;;;13.30;49.90;;;9.40;60.38;95078.69;5057524;28;20094;-52
2022/05/29 00:58:05;;;;;;;4.93;1.02;;;13.20;49.80;;;9.39;60.24;95087.69;5074814;28;20059;-50
2022/05/29 01:00:37;;;;;;;2.42;0.88;;;13.30;49.80;;;9.37;60.13;95079.22;4977183;28;20449;-48
2022/05/29 01:03:06;;;;;;;3.20;1.00;;;13.30;50.30;;;9.35;60.12;95072.56;5045027;28;20487;-49
2022/05/29 01:05:38;;;;;;;3.90;1.00;;;13.20;49.60;;;9.31;59.98;95059.03;5043839;28;20266;-51
2022/05/29 01:08:14;;;;;;;3.25;1.10;;;13.20;49.60;;;9.25;60.49;95058.22;5074736;28;20024;-49
2022/05/29 01:11:23;;;;;;;2.20;0.85;;;13.20;49.70;;;9.26;60.43;95056.38;5054005;28;20068;-52
2022/05/29 01:14:36;;;;;;;3.67;1.30;;;13.20;49.70;;;9.21;60.44;95059.00;5054550;28;20120;-50
2022/05/29 01:17:49;;;;;;;3.92;1.10;;;13.10;49.60;;;9.13;60.75;95046.28;5048221;28;20040;-50
2022/05/29 01:20:59;;;;;;;6.47;1.17;;;13.10;49.70;;;9.02;60.93;95053.47;5044727;28;20487;-50
2022/05/29 01:24:02;;;;;;;2.58;0.90;;;13.00;49.70;;;8.99;60.95;95054.00;5061979;28;20043;-48
2022/05/29 01:26:45;;;;;;;3.65;0.98;;;13.00;49.90;;;8.92;61.30;95040.19;5073782;28;20025;-51
2022/05/29 01:29:32;;;;;;;5.22;1.15;;;12.90;49.90;;;8.87;61.64;95040.19;5056973;28;20446;-53
2022/05/29 01:32:34;;;;;;;2.75;1.08;;;12.80;49.90;;;8.84;61.52;95038.06;5057803;28;20028;-50
2022/05/29 01:35:30;;;;;;;3.00;0.90;;;12.80;50.00;;;8.80;61.83;95027.19;5063436;28;20035;-54
2022/05/29 01:38:35;;;;;;;2.65;1.10;;;12.70;50.10;;;8.72;61.75;95012.59;5025904;28;20131;-50
2022/05/29 01:41:27;;;;;;;3.15;1.00;;;12.60;50.20;;;8.70;62.07;95013.91;5040113;28;20181;-50
2022/05/29 01:44:14;;;;;;;2.58;1.05;;;12.60;50.30;;;8.66;62.39;95005.69;5058887;28;20493;-52
2022/05/29 01:46:56;;;;;;;2.67;1.25;;;12.60;50.40;;;8.63;62.58;95003.56;5040322;28;20078;-49
2022/05/29 01:49:36;;;;;;;3.63;1.00;;;12.50;50.50;;;8.56;62.79;95008.34;5052913;28;20079;-54
2022/05/29 01:52:18;;;;;;;9.13;1.50;;;12.50;50.60;;;8.43;63.30;94991.09;5056769;28;20063;-51
2022/05/29 01:55:04;;;;;;;6.32;1.20;;;12.40;50.60;;;8.40;63.36;94993.44;5047853;28;20442;-51
2022/05/29 01:57:41;;;;;;;4.53;1.25;;;12.30;50.80;;;8.32;63.53;94984.94;5020032;28;20021;-53
2022/05/29 02:00:11;;;;;;;2.53;1.20;;;12.30;50.80;;;8.30;63.53;94983.59;5052785;28;20531;-50
2022/05/29 02:03:18;;;;;;;1.55;1.20;;;12.20;50.80;;;8.24;63.82;94984.66;5053572;28;20033;-51
2022/05/29 02:06:04;;;;;;;3.88;1.20;;;12.20;51.00;;;8.19;64.22;94982.00;5036210;28;20041;-51
2022/05/29 02:08:56;;;;;;;5.45;1.38;;;12.10;51.00;;;8.13;64.48;94977.75;5052373;28;20117;-51
2022/05/29 02:11:26;;;;;;;3.53;1.13;;;12.10;51.10;;;8.04;64.51;94980.91;5052150;28;20032;-53
2022/05/29 02:14:14;;;;;;;5.55;1.30;;;12.00;51.20;;;7.99;64.94;94974.81;5053418;28;20116;-50
2022/05/29 02:17:01;;;;;;;3.65;1.23;;;11.90;51.20;;;7.89;65.22;94979.03;5051924;28;20084;-48
2022/05/29 02:19:53;;;;;;;4.20;1.35;;;11.80;51.90;;;7.74;65.82;94972.88;5053191;28;20059;-49
2022/05/29 02:22:27;;;;;;;2.92;1.13;;;11.80;51.30;;;7.70;66.28;94977.91;5052020;28;20041;-50
2022/05/29 02:25:15;;;;;;;1.67;0.95;;;11.70;51.20;;;7.63;66.60;94977.38;5036234;28;20146;-50
2022/05/29 02:28:02;;;;;;;2.03;1.27;;;11.60;51.50;;;7.58;67.14;94975.53;5051874;28;20025;-51
2022/05/29 02:31:00;;;;;;;2.42;1.15;;;11.60;51.60;;;7.52;67.76;94965.13;5051887;28;20116;-54
2022/05/29 02:34:33;;;;;;;6.93;1.50;;;11.50;51.80;;;7.53;67.29;94954.28;5051895;28;20553;-53
2022/05/29 02:37:42;;;;;;;4.90;1.48;;;11.50;51.90;;;7.51;67.53;94960.91;5035155;28;20037;-50
2022/05/29 02:40:47;;;;;;;5.45;1.35;;;11.40;52.00;;;7.46;67.31;94951.09;5031865;28;20037;-50
2022/05/29 02:43:35;;;;;;;3.33;1.38;;;11.40;52.30;;;7.46;67.53;94950.28;5052741;28;20032;-49
2022/05/29 02:46:50;;;;;;;3.65;1.40;;;11.40;52.40;;;7.48;67.65;94943.66;5052815;28;20025;-52
2022/05/29 02:49:45;;;;;;;3.17;1.40;;;11.30;52.50;;;7.50;67.83;94941.56;4988130;28;20079;-50
2022/05/29 02:52:17;;;;;;;4.10;1.35;;;11.30;52.70;;;7.52;68.20;94949.22;4988405;28;20044;-48
2022/05/29 02:54:46;;;;;;;3.22;1.20;;;11.40;52.70;;;7.52;68.24;94952.69;5038381;28;20028;-47
2022/05/29 02:57:18;;;;;;;4.63;1.50;;;11.40;52.80;;;7.52;69.05;94942.09;5072339;28;20306;-48
2022/05/29 03:00:02;;;;;;;4.97;1.40;;;11.40;52.80;;;7.51;68.80;94935.19;5054622;28;20086;-47
2022/05/29 03:03:18;;;;;;;4.35;1.20;;;11.40;52.90;;;7.46;69.60;94935.19;5056119;28;20035;-48
2022/05/29 03:06:18;;;;;;;2.60;1.23;;;11.40;53.00;;;7.48;68.54;94943.66;5045140;28;20426;-47
2022/05/29 03:09:24;;;;;;;3.83;1.38;;;11.40;52.90;;;7.46;69.39;94943.13;5072387;28;20081;-45
2022/05/29 03:11:50;;;;;;;2.92;1.17;;;11.40;53.00;;;7.44;68.36;94953.19;5040300;28;20115;-46
2022/05/29 03:14:35;;;;;;;3.30;1.13;;;11.40;52.80;;;7.45;68.45;94949.47;5054294;28;20594;-48
2022/05/29 03:17:29;;;;;;;3.28;1.20;;;11.40;52.90;;;7.45;68.49;94946.03;5056020;28;20510;-46
2022/05/29 03:20:29;;;;;;;6.18;1.35;;;11.40;52.80;;;7.41;68.16;94953.72;5057897;28;20039;-47
2022/05/29 03:23:28;;;;;;;4.50;1.50;;;11.40;52.90;;;7.38;67.68;94952.38;5055673;28;20035;-46
2022/05/29 03:26:03;;;;;;;4.88;1.52;;;11.40;52.80;;;7.34;68.29;94953.94;5072165;28;20036;-45
2022/05/29 03:29:17;;;;;;;2.83;1.20;;;11.40;52.80;;;7.32;67.97;94952.63;5054737;28;20167;-47
2022/05/29 03:31:48;;;;;;;3.30;1.50;;;11.30;52.80;;;7.29;67.67;94951.28;5072149;28;20564;-46
2022/05/29 03:34:14;;;;;;;3.47;1.30;;;11.40;52.60;;;7.26;68.32;94943.84;5054467;28;20044;-50
2022/05/29 03:36:51;;;;;;;4.93;1.50;;;11.30;52.60;;;7.31;68.80;94945.72;5037373;28;20067;-46
2022/05/29 03:39:17;;;;;;;7.43;1.65;;;11.30;52.80;;;7.28;68.24;94951.53;5072213;28;20383;-46
2022/05/29 03:41:47;;;;;;;4.38;1.30;;;11.30;52.70;;;7.26;68.71;94946.50;5037517;28;20484;-46
2022/05/29 03:44:23;;;;;;;8.18;1.92;;;11.30;52.80;;;7.21;68.26;94940.38;5070755;28;20036;-48
2022/05/29 03:46:49;;;;;;;3.55;1.20;;;11.30;53.00;;;7.19;68.61;94940.63;5054366;28;20036;-46
2022/05/29 03:49:18;;;;;;;2.70;1.23;;;11.20;52.80;;;7.11;68.99;94946.41;5071886;28;20445;-49
2022/05/29 03:51:48;;;;;;;8.00;1.85;;;11.20;52.90;;;7.07;68.96;94955.94;5058081;28;20045;-50
2022/05/29 03:54:17;;;;;;;3.05;1.40;;;11.10;52.90;;;7.02;69.81;94959.38;5057756;28;20072;-47
2022/05/29 03:56:46;;;;;;;3.88;1.65;;;11.10;53.00;;;6.94;70.36;94957.19;5074528;28;20123;-48
2022/05/29 03:59:18;;;;;;;3.50;1.50;;;11.10;53.20;;;6.90;70.65;94956.91;5058000;28;20545;-45
2022/05/29 04:01:47;;;;;;;3.20;1.45;;;11.00;53.40;;;6.88;70.91;94953.72;5075855;28;20032;-47
2022/05/29 04:04:15;;;;;;;4.00;1.35;;;11.00;53.40;;;6.88;70.74;94964.31;5075844;28;20021;-47
2022/05/29 04:06:44;;;;;;;4.78;1.55;;;10.90;53.40;;;6.90;70.86;94959.56;5075801;28;20029;-46
2022/05/29 04:12:13;;;;;;;5.28;1.60;;;11.00;53.70;;;6.94;71.30;94958.00;5055872;28;20039;-45
2022/05/29 04:14:42;;;;;;;4.63;1.40;;;11.00;53.90;;;6.97;70.93;94961.97;5054081;28;20070;-46
2022/05/29 04:17:19;;;;;;;5.68;1.40;;;11.00;53.90;;;7.03;70.64;94960.16;5041519;28;20037;-47
2022/05/29 04:19:48;;;;;;;6.97;1.50;;;11.10;54.10;;;7.09;71.07;94952.00;5057857;28;20032;-46
2022/05/29 04:22:22;;;;;;;2.35;1.30;;;11.20;54.10;;;7.15;70.78;94958.13;5057806;28;20103;-48
2022/05/29 04:24:50;;;;;;;4.50;1.50;;;11.20;54.20;;;7.21;70.30;94953.63;5075545;28;20028;-47
2022/05/29 04:27:19;;;;;;;5.05;1.70;;;11.30;54.10;;;7.28;70.20;94952.34;5057506;28;20509;-47
2022/05/29 04:29:48;;;;;;;3.75;1.40;;;11.40;54.10;;;7.35;70.62;94955.53;5075428;28;20032;-47
2022/05/29 04:35:07;;;;;;;2.67;1.30;;;11.60;54.20;;;7.50;68.75;94946.06;5075179;28;20625;-48
2022/05/29 04:37:33;;;;;;;2.60;1.40;;;11.60;53.90;;;7.58;68.00;94935.75;5073785;28;20451;-48
2022/05/29 04:39:59;;;;;;;7.25;1.40;;;11.70;53.70;;;7.68;67.75;94945.59;5057735;28;20052;-47
2022/05/29 04:42:33;;;;;;;3.80;1.38;;;11.90;53.70;;;7.80;67.11;94947.97;5075028;28;20044;-46
2022/05/29 04:45:00;;;;;;;5.20;1.52;;;12.00;53.70;;;7.92;67.00;94953.06;5040724;28;20029;-45
2022/05/29 04:47:25;;;;;;;3.22;1.40;;;12.10;53.40;;;8.02;66.65;94961.84;5057108;28;20025;-47
2022/05/29 04:49:51;;;;;;;2.67;1.13;;;12.20;53.30;;;8.10;65.97;94953.34;5075000;28;20029;-46
2022/05/29 04:52:17;;;;;;;4.18;1.38;;;12.30;53.10;;;8.18;65.46;94951.22;5074697;28;20033;-47
2022/05/29 04:54:46;;;;;;;3.20;1.20;;;12.40;52.90;;;8.26;65.45;94950.69;5074901;28;20033;-47
2022/05/29 04:57:20;;;;;;;5.25;1.38;;;12.50;52.70;;;8.35;65.29;94947.25;5061423;28;20520;-46
2022/05/29 04:59:46;;;;;;;2.85;1.10;;;12.70;52.60;;;8.46;65.30;94945.44;5040190;28;20145;-50
2022/05/29 05:02:18;;;;;;;3.42;1.40;;;12.80;52.40;;;8.55;64.77;94954.47;5056526;28;20037;-46
2022/05/29 05:04:44;;;;;;;3.08;1.20;;;12.90;52.20;;;8.66;64.61;94952.59;5074864;28;20024;-46
2022/05/29 05:07:10;;;;;;;5.88;1.60;;;13.00;52.10;;;8.80;64.02;94961.56;5056971;28;20475;-47
2022/05/29 05:09:44;;;;;;;5.68;1.20;;;13.20;51.90;;;8.89;63.60;94963.69;5056487;28;20506;-46
2022/05/29 05:12:10;;;;;;;5.25;1.40;;;13.30;51.70;;;9.06;63.37;94968.69;5045748;28;20302;-50
2022/05/29 05:14:39;;;;;;;5.97;1.30;;;13.50;51.60;;;9.19;62.23;94958.31;5073147;28;20036;-47
2022/05/29 05:17:17;;;;;;;3.50;1.33;;;13.60;51.20;;;9.41;61.75;94959.84;5040129;28;20032;-49
2022/05/29 05:19:52;;;;;;;2.75;1.05;;;13.80;51.00;;;9.65;61.43;94952.84;5074377;28;20051;-47
2022/05/29 05:22:17;;;;;;;5.28;1.13;;;14.00;50.80;;;9.74;60.27;94958.34;5074520;28;20028;-49
2022/05/29 05:24:45;;;;;;;3.35;1.23;;;14.10;50.40;;;9.78;59.68;94963.91;5074458;28;20035;-46
2022/05/29 05:27:17;;;;;;;2.65;1.30;;;14.30;50.10;;;9.84;60.06;94957.50;5056465;28;20087;-46
2022/05/29 05:29:46;;;;;;;1.88;1.15;;;14.40;49.80;;;9.89;59.73;94952.94;5056393;28;20024;-48
2022/05/29 05:32:13;;;;;;;2.75;1.25;;;14.50;49.60;;;9.91;58.89;94953.47;5073080;28;20028;-49
2022/05/29 05:34:40;;;;;;;2.90;1.02;;;14.60;49.30;;;10.00;59.66;94958.22;5039670;28;20494;-47
2022/05/29 05:37:07;;;;;;;3.05;1.35;;;14.70;49.10;;;10.08;59.28;94955.75;5073979;28;20036;-49
2022/05/29 05:39:35;;;;;;;4.85;1.20;;;14.80;48.90;;;10.10;58.92;94950.19;5056164;28;20043;-47
2022/05/29 05:42:01;;;;;;;3.17;1.13;;;14.90;48.70;;;10.18;58.77;94953.06;5073996;28;20029;-46
2022/05/29 05:44:30;;;;;;;4.65;1.40;;;14.90;48.40;;;10.27;58.10;94955.13;5056017;28;20146;-51
2022/05/29 05:46:56;;;;;;;4.05;1.27;;;15.00;48.20;;;10.32;57.24;94947.91;5074067;28;20090;-48
2022/05/29 05:49:23;;;;;;;4.80;1.20;;;15.10;47.90;;;10.44;57.71;94957.44;5073962;28;20039;-49
2022/05/29 05:51:51;;;;;;;2.40;1.00;;;15.20;47.80;;;10.72;56.76;94958.50;5073845;28;20075;-48
2022/05/29 05:54:20;;;;;;;3.17;0.98;;;15.30;47.40;;;11.03;55.69;94957.16;5055710;28;20507;-47
2022/05/29 05:56:52;;;;;;;2.03;1.30;;;15.50;47.10;;;11.47;55.37;94956.16;5073548;28;20029;-47
2022/05/29 05:59:18;;;;;;;5.07;1.40;;;15.80;46.90;;;11.91;54.17;94960.44;5056329;28;20106;-47
2022/05/29 06:01:58;;;;;;;8.32;1.40;;;16.10;46.70;;;12.46;52.35;94960.69;5055726;28;20035;-47
2022/05/29 06:04:24;;;;;;;2.92;1.30;;;16.60;46.20;;;13.02;51.55;94955.50;5055610;28;20035;-49
2022/05/29 06:06:50;;;;;;;3.38;1.20;;;17.00;45.80;;;13.51;50.52;94959.44;5073412;28;20120;-49
2022/05/29 06:09:20;;;;;;;3.75;1.27;;;17.40;45.40;;;13.93;48.21;94955.63;5073503;28;20108;-49
2022/05/29 06:11:46;;;;;;;2.78;1.17;;;17.80;44.90;;;14.16;48.81;94958.34;5073462;28;20056;-47
2022/05/29 06:14:15;;;;;;;6.57;1.30;;;18.00;44.60;;;14.31;48.00;94958.00;5072957;28;20533;-50
2022/05/29 06:16:41;;;;;;;3.50;1.48;;;18.20;44.10;;;14.29;48.58;94971.69;5073346;28;20035;-47
2022/05/29 06:19:07;;;;;;;3.28;1.30;;;18.40;43.80;;;14.48;47.33;94960.03;5066835;28;20036;-49
2022/05/29 06:21:36;;;;;;;6.32;1.40;;;18.60;43.20;;;14.85;47.08;94966.13;5042750;28;20441;-47
2022/05/29 06:24:02;;;;;;;3.00;1.35;;;19.10;42.70;;;15.13;45.70;94961.41;5052546;28;20115;-48
2022/05/29 06:26:34;;;;;;;4.75;1.70;;;19.40;42.00;;;15.46;44.59;94961.88;5035211;28;20167;-48
2022/05/29 06:29:00;;;;;;;2.30;1.15;;;19.80;41.30;;;15.62;43.76;94967.59;5067999;28;20442;-51
2022/05/29 06:31:25;;;;;;;3.42;1.35;;;20.30;40.50;;;15.84;43.48;94969.44;5047718;28;20032;-52
2022/05/29 06:33:55;;;;;;;4.22;1.45;;;20.60;39.80;;;15.72;42.16;94956.59;5050946;28;20032;-45
2022/05/29 06:36:27;;;;;;;2.58;1.20;;;20.90;38.30;;;15.56;42.72;94968.84;5055308;28;20028;-46
2022/05/29 06:38:58;;;;;;;3.03;1.30;;;21.10;37.00;;;15.61;42.65;94964.13;5057314;28;20029;-47
2022/05/29 06:41:26;;;;;;;2.85;1.38;;;21.30;36.50;;;15.88;42.54;94973.84;5051861;28;20070;-56
2022/05/29 06:43:54;;;;;;;2.58;1.17;;;21.60;36.30;;;15.77;42.93;94967.22;5032591;28;20078;-47
2022/05/29 06:46:23;;;;;;;2.60;1.25;;;21.60;35.80;;;15.78;42.61;94966.09;5050173;28;20496;-51
2022/05/29 06:48:49;;;;;;;3.53;1.55;;;21.70;35.30;;;15.83;42.11;94971.34;5053472;28;20060;-46
2022/05/29 06:51:22;;;;;;;3.15;1.70;;;22.00;34.70;;;15.83;42.23;94968.66;5063432;28;20078;-47
2022/05/29 06:54:01;;;;;;;3.53;1.58;;;22.00;34.20;;;15.88;41.43;94975.75;5061655;28;20508;-46
2022/05/29 06:56:30;;;;;;;3.15;1.40;;;22.00;34.20;;;15.82;43.54;94979.69;5054987;28;20034;-52
2022/05/29 06:58:56;;;;;;;5.90;1.38;;;21.90;34.50;;;15.83;42.11;94975.91;5042986;28;20116;-48
2022/05/29 07:07:12;;;;;;;3.78;1.42;;;22.00;34.40;;;16.21;42.83;94969.97;5057676;28;20091;-49
2022/05/29 07:09:39;;;;;;;2.08;1.35;;;22.10;34.50;;;16.09;43.01;94968.69;5049319;28;20043;-48
2022/05/29 07:12:39;;;;;;;3.38;1.42;;;22.10;34.40;;;15.80;42.62;94979.22;5049846;28;20476;-47
2022/05/29 07:15:07;;;;;;;3.55;1.35;;;22.00;34.00;;;15.66;43.59;94973.94;5048014;28;20041;-49
2022/05/29 07:17:33;;;;;;;3.10;1.30;;;21.90;33.80;;;15.74;43.72;94970.53;5029544;28;20082;-49
2022/05/29 07:19:59;;;;;;;4.28;1.42;;;21.80;34.00;;;15.96;44.14;94981.16;5054464;28;20029;-48
2022/05/29 07:22:29;;;;;;;3.67;1.10;;;21.80;34.40;;;16.11;44.08;94979.13;5040583;28;20055;-52
2022/05/29 07:24:57;;;;;;;4.82;1.52;;;21.70;34.60;;;16.21;43.23;94981.53;5038146;28;20024;-51
2022/05/29 07:27:29;;;;;;;4.93;1.60;;;21.90;34.40;;;16.46;43.05;94981.84;5045356;28;20036;-48
2022/05/29 07:29:54;;;;;;;2.45;1.42;;;22.10;34.30;;;16.36;42.69;94981.06;5058099;28;20032;-48
2022/05/29 07:32:20;;;;;;;2.17;1.20;;;22.30;34.10;;;16.20;42.36;94979.91;5039775;28;20124;-51
2022/05/29 07:34:46;;;;;;;2.38;1.55;;;22.40;33.60;;;16.44;41.78;94982.16;5044976;28;20514;-52
2022/05/29 07:37:26;;;;;;;2.92;1.23;;;22.80;33.00;;;16.53;42.36;94974.88;5053133;28;20090;-51
2022/05/29 07:39:53;;;;;;;4.20;1.40;;;23.00;32.70;;;16.86;41.47;94974.44;5054488;28;20435;-50
2022/05/29 07:45:07;;;;;;;4.55;1.58;;;23.40;32.50;;;17.14;41.69;94979.41;5056511;28;20078;-50
2022/05/29 07:47:41;;;;;;;5.40;1.42;;;23.40;32.30;;;17.21;41.17;94979.75;5036920;28;20039;-49
2022/05/29 07:50:15;;;;;;;3.47;1.80;;;23.60;31.80;;;17.49;40.79;94972.06;5053520;28;20033;-48
2022/05/29 07:52:41;;;;;;;5.70;1.60;;;23.90;31.60;;;17.77;40.49;94980.50;5053033;28;20403;-53
2022/05/29 07:55:11;;;;;;;4.07;1.90;;;24.20;31.30;;;18.18;39.16;94979.00;5053612;28;20640;-49
2022/05/29 07:57:37;;;;;;;3.33;1.40;;;24.70;31.50;;;18.11;40.08;94973.34;5036538;28;20035;-47
2022/05/29 08:00:08;;;;;;;5.25;2.03;;;24.70;30.90;;;17.76;40.29;94971.59;5059688;28;20025;-50
2022/05/29 08:02:39;;;;;;;4.20;1.60;;;24.70;30.50;;;18.22;39.92;94977.22;5054504;28;20025;-51
2022/05/29 08:05:12;;;;;;;4.45;1.73;;;24.80;30.40;;;18.62;39.29;94969.47;5055059;28;20383;-48
2022/05/29 08:07:39;;;;;;;3.63;1.67;;;25.10;30.20;;;18.96;38.10;94973.03;5048597;28;20513;-48
2022/05/29 08:10:07;;;;;;;5.07;1.80;;;25.40;29.90;;;18.88;37.13;94979.28;5032931;28;20076;-54
2022/05/29 08:12:33;;;;;;;3.20;1.75;;;25.60;29.50;;;19.13;37.40;94978.22;5056420;28;20039;-49
2022/05/29 08:14:59;;;;;;;5.47;1.85;;;25.90;29.40;;;19.27;37.26;94974.44;5062891;28;20462;-52
2022/05/29 08:17:28;;;;;;;3.38;1.80;;;26.10;29.10;;;19.47;37.08;94973.59;5040392;28;20116;-50
2022/05/29 08:19:56;;;;;;;4.00;1.80;;;26.50;28.60;;;19.40;36.31;94984.94;5070117;28;20016;-49
2022/05/29 08:22:25;;;;;;;3.90;1.42;;;26.50;28.20;;;19.77;36.76;94981.50;5052681;28;20440;-50
2022/05/29 08:30:41;;;;;;;4.82;1.65;;;27.00;27.80;;;19.73;36.33;94973.28;5043763;28;20043;-52
2022/05/29 08:33:23;;;;;;;3.72;1.60;;;27.00;27.80;;;19.68;36.05;94981.63;5054159;28;20518;-50
2022/05/29 08:36:01;;;;;;;4.30;1.90;;;27.00;27.70;;;19.92;36.22;94985.47;5029621;28;20029;-51
2022/05/29 08:38:28;;;;;;;5.15;1.67;;;26.90;27.80;;;19.71;35.43;94980.16;5048137;28;20309;-49
2022/05/29 08:41:15;;;;;;;6.05;2.22;;;26.90;27.50;;;19.78;35.29;94977.69;5040032;28;20024;-50
2022/05/29 08:44:09;;;;;;;2.33;1.60;;;26.90;27.30;;;19.76;35.33;94972.63;5060009;28;20388;-49
2022/05/29 08:46:42;;;;;;;4.43;1.58;;;27.00;27.20;;;20.24;34.74;94970.22;5054551;28;20025;-47
2022/05/29 08:49:44;;;;;;;5.00;1.58;;;27.00;27.40;;;20.45;35.09;94973.56;5036305;28;20037;-49
2022/05/29 08:53:05;;;;;;;2.55;1.80;;;27.10;27.40;;;20.67;34.04;94975.00;5054895;28;20120;-50
2022/05/29 08:55:49;;;;;;;2.60;1.70;;;27.20;27.30;;;20.30;34.26;94968.84;5079043;23;20201;-52
2022/05/29 08:58:44;;;;;;;4.63;1.65;;;27.40;26.80;;;20.50;34.91;94964.44;5036530;28;20047;-51
2022/05/29 09:01:37;;;;;;;2.75;1.75;;;27.30;26.70;;;20.74;33.78;94960.88;5058234;28;20037;-54
2022/05/29 09:04:13;;;;;;;3.97;2.03;;;27.50;26.70;;;21.37;34.03;94958.34;5049918;28;20024;-52
2022/05/29 09:06:50;;;;;;;4.03;2.08;;;27.90;26.70;;;21.23;32.23;94955.25;5048555;28;20033;-52
2022/05/29 09:09:31;;;;;;;3.00;1.85;;;28.30;26.10;;;21.76;32.80;94955.81;5053471;28;20028;-54
2022/05/29 09:12:17;;;;;;;3.00;2.22;;;28.70;25.90;;;22.19;30.60;94956.84;5046458;28;20599;-50
2022/05/29 09:15:04;;;;;;;4.15;2.00;;;29.30;25.50;;;21.86;32.25;94952.56;5046515;28;20138;-53
2022/05/29 09:17:35;;;;;;;4.85;1.98;;;29.60;25.30;;;21.59;33.24;94956.16;5056854;28;20112;-53
2022/05/29 09:20:14;;;;;;;3.72;1.88;;;29.60;25.10;;;21.88;32.30;94944.88;5057326;28;20029;-53
2022/05/29 09:22:47;;;;;;;4.45;1.90;;;29.50;25.00;;;22.24;33.12;94940.25;5058033;28;20398;-54
2022/05/29 09:25:44;;;;;;;4.32;2.15;;;29.50;25.20;;;22.43;31.53;94942.22;5056283;28;20398;-55
2022/05/29 09:28:42;;;;;;;4.43;1.90;;;29.70;24.90;;;22.81;30.60;94941.47;5040959;28;20037;-54
2022/05/29 09:31:25;;;;;;;4.60;2.28;;;29.90;24.70;;;22.74;29.13;94944.03;5056303;28;20028;-54
2022/05/29 09:33:51;;;;;;;2.45;1.45;;;29.90;24.30;;;22.57;30.18;94941.75;5053803;28;20037;-53
2022/05/29 09:37:01;;;;;;;3.88;2.00;;;29.90;24.00;;;22.65;29.60;94948.88;5054107;28;20021;-55
2022/05/29 09:39:47;;;;;;;4.50;2.10;;;29.90;23.70;;;22.91;29.80;94950.97;5066234;28;20048;-52
2022/05/29 09:42:44;;;;;;;4.55;2.05;;;30.10;23.90;;;23.17;28.96;94944.09;5040092;28;20050;-51
2022/05/29 09:45:25;;;;;;;3.30;2.05;;;30.30;23.60;;;23.41;27.86;94940.22;5055873;28;20036;-55
2022/05/29 09:50:58;;;;;;;3.53;2.03;;;31.00;22.80;;;24.26;26.27;94935.38;5059193;28;20035;-52
2022/05/29 09:53:34;;;;;;;4.78;2.40;;;31.70;22.40;;;24.57;25.97;94933.47;5056772;28;20051;-53
2022/05/29 09:56:08;;;;;;;3.45;2.45;;;32.20;22.10;;;24.02;28.09;94926.50;5065768;28;20533;-54
2022/05/29 09:58:51;;;;;;;5.60;2.03;;;32.50;21.70;;;23.70;27.60;94927.94;5056197;28;20033;-54
2022/05/29 10:01:40;;;;;;;4.30;2.17;;;32.20;21.50;;;24.36;27.28;94923.06;5056217;28;20025;-54
2022/05/29 10:04:20;;;;;;;6.18;2.15;;;32.40;21.70;;;24.50;26.39;94925.22;5056274;28;20025;-54
2022/05/29 10:06:54;;;;;;;3.67;2.15;;;32.50;21.60;;;25.15;25.98;94928.34;5035807;28;20029;-56
2022/05/29 10:09:27;;;;;;;4.38;1.80;;;33.00;21.30;;;24.97;25.52;94919.16;5070765;28;20032;-52
2022/05/29 10:12:15;;;;;;;4.78;1.80;;;32.90;21.60;;;24.43;25.57;94917.75;5044226;28;20052;-56
2022/05/29 10:14:45;;;;;;;4.50;1.77;;;32.40;21.30;;;24.01;27.08;94921.44;5029414;28;20094;-56
2022/05/29 10:17:29;;;;;;;3.45;1.80;;;31.90;20.90;;;23.68;26.02;94928.28;5055506;28;20501;-55
2022/05/29 10:19:55;;;;;;;4.05;1.70;;;31.80;20.80;;;23.20;26.10;94921.63;5073385;28;20071;-56
2022/05/29 10:22:41;;;;;;;5.43;1.70;;;31.40;20.90;;;23.32;26.70;94916.81;5053301;28;20035;-56
2022/05/29 10:25:38;;;;;;;4.53;1.90;;;31.10;21.00;;;23.19;28.47;94920.06;5072944;28;20035;-56
2022/05/29 10:28:16;;;;;;;3.63;1.55;;;30.70;21.30;;;23.28;25.64;94920.59;5068158;28;20039;-56
2022/05/29 10:30:55;;;;;;;3.10;1.42;;;30.40;21.20;;;22.98;24.09;94909.59;5044634;28;20375;-54
2022/05/29 10:33:34;;;;;;;3.30;1.40;;;30.20;20.80;;;22.88;25.83;94910.94;5075109;28;20025;-53
2022/05/29 10:36:16;;;;;;;4.72;1.42;;;30.00;21.00;;;22.38;27.84;94901.81;5034322;28;20376;-54
2022/05/29 10:39:08;;;;;;;8.63;2.22;;;29.80;21.30;;;22.42;28.34;94913.53;5055319;28;20029;-54
2022/05/29 10:41:43;;;;;;;4.28;1.90;;;29.70;21.60;;;22.50;28.61;94906.31;5036508;28;20047;-55
2022/05/29 10:44:12;;;;;;;2.83;1.63;;;29.80;21.70;;;22.33;27.52;94912.94;5055174;28;20035;-56
2022/05/29 10:47:16;;;;;;;3.08;1.48;;;30.00;21.50;;;22.37;27.49;94913.78;5054943;28;20395;-55
2022/05/29 10:50:16;;;;;;;2.58;1.67;;;29.90;21.50;;;22.41;26.45;94909.25;5004298;28;20037;-56
2022/05/29 10:52:48;;;;;;;2.53;1.30;;;29.60;21.50;;;22.36;26.57;94910.31;5058026;28;20029;-56
2022/05/29 10:56:08;;;;;;;6.28;1.80;;;29.20;21.50;;;22.05;28.19;94916.56;5077093;28;20048;-55
2022/05/29 10:58:55;;;;;;;4.00;1.70;;;28.90;21.80;;;21.36;30.85;94904.50;5085536;28;20478;-54
2022/05/29 11:05:19;;;;;;;4.20;1.30;;;27.90;22.90;;;19.89;35.53;94922.06;5074017;28;20054;-56
2022/05/29 11:08:10;;;;;;;3.85;1.40;;;27.30;23.70;;;19.44;35.66;94925.66;5071411;28;20436;-55
2022/05/29 11:11:07;;;;;;;2.28;1.50;;;26.80;24.10;;;19.22;36.51;94920.69;5046987;28;20085;-55
2022/05/29 11:14:10;;;;;;;5.95;1.40;;;26.50;24.70;;;19.32;37.16;94920.22;5073821;28;20028;-52
2022/05/29 11:17:03;;;;;;;;;;;26.30;25.10;;;19.23;36.82;94916.84;5092322;28;20031;-53
2022/05/29 11:20:17;;;;;;;3.57;1.50;;;26.00;25.10;;;19.45;35.59;94907.53;5053818;28;19913;-56
2022/05/29 11:23:27;;;;;;;3.17;1.80;;;26.30;25.60;;;20.05;34.55;94906.72;5045496;28;20286;-52
2022/05/29 11:26:05;;;;;;;3.78;1.98;;;27.00;25.30;;;20.88;34.04;94898.25;5076745;28;20020;-56
2022/05/29 11:28:36;;;;;;;2.08;1.88;;;27.90;25.10;;;21.48;33.19;94905.22;5069313;28;20028;-54
2022/05/29 11:31:55;;;;;;;3.75;1.92;;;28.80;24.80;;;21.98;31.84;94905.59;5072018;28;20035;-56
2022/05/29 11:34:32;;;;;;;2.08;1.60;;;29.50;24.30;;;21.91;30.27;94894.59;5084982;28;20103;-54
2022/05/29 11:37:41;;;;;;;2.95;1.27;;;29.80;23.60;;;21.64;31.31;94912.53;5074591;28;20024;-51